sensor_id;sensor_type;location;lat;lon;timestamp;P1;durP1;ratioP1;P2;durP2;ratioP2
36931;SDS011;22847;42.654;23.370;2023-03-26T00:00:45;1.02;;;0.80;;
36931;SDS011;22847;42.654;23.370;2023-03-26T00:03:13;0.77;;;0.57;;
36931;SDS011;22847;42.654;23.370;2023-03-26T00:05:40;0.60;;;0.60;;
36931;SDS011;22847;42.654;23.370;2023-03-26T00:08:06;2.35;;;0.57;;
36931;SDS011;22847;42.654;23.370;2023-03-26T00:10:35;0.68;;;0.55;;
36931;SDS011;22847;42.654;23.370;2023-03-26T00:13:02;1.48;;;0.68;;
36931;SDS011;22847;42.654;23.370;2023-03-26T00:15:32;0.77;;;0.63;;
36931;SDS011;22847;42.654;23.370;2023-03-26T00:17:58;0.60;;;0.50;;
36931;SDS011;22847;42.654;23.370;2023-03-26T00:20:28;0.60;;;0.60;;
36931;SDS011;22847;42.654;23.370;2023-03-26T00:22:54;0.77;;;0.60;;
36931;SDS011;22847;42.654;23.370;2023-03-26T00:25:20;0.70;;;0.70;;
36931;SDS011;22847;42.654;23.370;2023-03-26T00:27:48;0.70;;;0.60;;
36931;SDS011;22847;42.654;23.370;2023-03-26T00:30:14;2.38;;;0.60;;
36931;SDS011;22847;42.654;23.370;2023-03-26T00:32:40;0.93;;;0.63;;
36931;SDS011;22847;42.654;23.370;2023-03-26T00:35:06;0.70;;;0.55;;
36931;SDS011;22847;42.654;23.370;2023-03-26T00:37:32;0.63;;;0.60;;
36931;SDS011;22847;42.654;23.370;2023-03-26T00:39:57;0.60;;;0.60;;
36931;SDS011;22847;42.654;23.370;2023-03-26T00:42:28;5.15;;;0.80;;
36931;SDS011;22847;42.654;23.370;2023-03-26T00:44:54;3.10;;;0.75;;
36931;SDS011;22847;42.654;23.370;2023-03-26T00:47:22;1.00;;;0.60;;
36931;SDS011;22847;42.654;23.370;2023-03-26T00:49:51;3.60;;;0.60;;
36931;SDS011;22847;42.654;23.370;2023-03-26T00:52:17;0.50;;;0.50;;
36931;SDS011;22847;42.654;23.370;2023-03-26T00:54:51;0.60;;;0.60;;
36931;SDS011;22847;42.654;23.370;2023-03-26T00:57:18;2.55;;;0.60;;
36931;SDS011;22847;42.654;23.370;2023-03-26T00:59:45;0.57;;;0.50;;
36931;SDS011;22847;42.654;23.370;2023-03-26T01:02:12;0.95;;;0.60;;
36931;SDS011;22847;42.654;23.370;2023-03-26T01:05:25;0.60;;;0.60;;
36931;SDS011;22847;42.654;23.370;2023-03-26T01:07:49;0.65;;;0.57;;
36931;SDS011;22847;42.654;23.370;2023-03-26T01:10:15;0.63;;;0.50;;
36931;SDS011;22847;42.654;23.370;2023-03-26T01:12:41;1.52;;;0.77;;
36931;SDS011;22847;42.654;23.370;2023-03-26T01:15:08;0.50;;;0.50;;
36931;SDS011;22847;42.654;23.370;2023-03-26T01:17:34;0.43;;;0.43;;
36931;SDS011;22847;42.654;23.370;2023-03-26T01:22:35;0.50;;;0.50;;
36931;SDS011;22847;42.654;23.370;2023-03-26T01:25:03;0.50;;;0.50;;
36931;SDS011;22847;42.654;23.370;2023-03-26T01:27:43;2.38;;;0.68;;
36931;SDS011;22847;42.654;23.370;2023-03-26T01:36:03;0.60;;;0.60;;
36931;SDS011;22847;42.654;23.370;2023-03-26T01:39:15;1.77;;;0.98;;
36931;SDS011;22847;42.654;23.370;2023-03-26T01:44:42;0.65;;;0.60;;
36931;SDS011;22847;42.654;23.370;2023-03-26T01:47:14;0.88;;;0.82;;
36931;SDS011;22847;42.654;23.370;2023-03-26T01:49:41;0.70;;;0.70;;
36931;SDS011;22847;42.654;23.370;2023-03-26T01:52:14;0.70;;;0.70;;
36931;SDS011;22847;42.654;23.370;2023-03-26T01:54:41;1.42;;;0.90;;
36931;SDS011;22847;42.654;23.370;2023-03-26T02:08:31;1.08;;;0.90;;
36931;SDS011;22847;42.654;23.370;2023-03-26T02:11:01;0.90;;;0.90;;
36931;SDS011;22847;42.654;23.370;2023-03-26T02:13:39;1.02;;;0.90;;
36931;SDS011;22847;42.654;23.370;2023-03-26T02:16:07;1.02;;;0.90;;
36931;SDS011;22847;42.654;23.370;2023-03-26T02:18:36;1.77;;;0.90;;
36931;SDS011;22847;42.654;23.370;2023-03-26T02:21:13;1.10;;;1.00;;
36931;SDS011;22847;42.654;23.370;2023-03-26T02:23:44;1.20;;;0.95;;
36931;SDS011;22847;42.654;23.370;2023-03-26T02:26:11;2.65;;;1.00;;
36931;SDS011;22847;42.654;23.370;2023-03-26T02:28:37;1.00;;;0.90;;
36931;SDS011;22847;42.654;23.370;2023-03-26T02:31:03;1.00;;;0.90;;
36931;SDS011;22847;42.654;23.370;2023-03-26T02:33:29;1.05;;;0.98;;
36931;SDS011;22847;42.654;23.370;2023-03-26T02:35:56;1.20;;;1.00;;
36931;SDS011;22847;42.654;23.370;2023-03-26T02:38:29;1.65;;;1.10;;
36931;SDS011;22847;42.654;23.370;2023-03-26T02:41:02;1.27;;;1.17;;
36931;SDS011;22847;42.654;23.370;2023-03-26T02:43:28;1.42;;;1.10;;
36931;SDS011;22847;42.654;23.370;2023-03-26T02:45:53;2.42;;;1.13;;
36931;SDS011;22847;42.654;23.370;2023-03-26T02:48:19;0.88;;;0.88;;
36931;SDS011;22847;42.654;23.370;2023-03-26T02:50:45;1.38;;;1.10;;
36931;SDS011;22847;42.654;23.370;2023-03-26T02:53:14;2.03;;;1.30;;
36931;SDS011;22847;42.654;23.370;2023-03-26T02:55:40;1.27;;;1.17;;
36931;SDS011;22847;42.654;23.370;2023-03-26T02:58:05;1.13;;;1.02;;
36931;SDS011;22847;42.654;23.370;2023-03-26T03:00:31;1.20;;;1.00;;
36931;SDS011;22847;42.654;23.370;2023-03-26T03:02:57;1.42;;;1.10;;
36931;SDS011;22847;42.654;23.370;2023-03-26T03:05:23;1.77;;;1.00;;
36931;SDS011;22847;42.654;23.370;2023-03-26T03:07:55;1.02;;;0.90;;
36931;SDS011;22847;42.654;23.370;2023-03-26T03:10:22;1.90;;;1.10;;
36931;SDS011;22847;42.654;23.370;2023-03-26T03:12:49;1.10;;;1.00;;
36931;SDS011;22847;42.654;23.370;2023-03-26T03:15:14;2.53;;;1.45;;
36931;SDS011;22847;42.654;23.370;2023-03-26T03:17:40;1.13;;;1.02;;
36931;SDS011;22847;42.654;23.370;2023-03-26T03:20:06;2.17;;;1.42;;
36931;SDS011;22847;42.654;23.370;2023-03-26T03:22:35;1.38;;;1.23;;
36931;SDS011;22847;42.654;23.370;2023-03-26T03:25:01;2.25;;;1.20;;
36931;SDS011;22847;42.654;23.370;2023-03-26T03:27:27;1.63;;;1.50;;
36931;SDS011;22847;42.654;23.370;2023-03-26T03:29:53;2.28;;;1.45;;
36931;SDS011;22847;42.654;23.370;2023-03-26T03:32:19;2.28;;;1.70;;
36931;SDS011;22847;42.654;23.370;2023-03-26T03:34:46;1.88;;;1.63;;
36931;SDS011;22847;42.654;23.370;2023-03-26T03:37:14;2.10;;;1.77;;
36931;SDS011;22847;42.654;23.370;2023-03-26T03:39:40;2.13;;;1.75;;
36931;SDS011;22847;42.654;23.370;2023-03-26T03:42:06;2.72;;;1.95;;
36931;SDS011;22847;42.654;23.370;2023-03-26T03:44:31;2.75;;;1.88;;
36931;SDS011;22847;42.654;23.370;2023-03-26T03:46:56;2.55;;;2.17;;
36931;SDS011;22847;42.654;23.370;2023-03-26T03:49:22;2.35;;;2.15;;
36931;SDS011;22847;42.654;23.370;2023-03-26T03:51:47;3.92;;;2.13;;
36931;SDS011;22847;42.654;23.370;2023-03-26T03:54:13;3.63;;;2.40;;
36931;SDS011;22847;42.654;23.370;2023-03-26T03:56:38;2.53;;;2.20;;
36931;SDS011;22847;42.654;23.370;2023-03-26T03:59:04;2.70;;;2.45;;
36931;SDS011;22847;42.654;23.370;2023-03-26T04:01:30;3.35;;;2.60;;
36931;SDS011;22847;42.654;23.370;2023-03-26T04:03:56;2.88;;;2.13;;
36931;SDS011;22847;42.654;23.370;2023-03-26T04:06:23;5.00;;;2.60;;
36931;SDS011;22847;42.654;23.370;2023-03-26T04:08:49;3.08;;;2.40;;
36931;SDS011;22847;42.654;23.370;2023-03-26T04:11:15;2.90;;;2.38;;
36931;SDS011;22847;42.654;23.370;2023-03-26T04:13:41;3.08;;;2.45;;
36931;SDS011;22847;42.654;23.370;2023-03-26T04:16:07;3.25;;;2.53;;
36931;SDS011;22847;42.654;23.370;2023-03-26T04:18:33;2.80;;;2.50;;
36931;SDS011;22847;42.654;23.370;2023-03-26T04:21:00;3.30;;;2.67;;
36931;SDS011;22847;42.654;23.370;2023-03-26T04:23:26;3.08;;;2.60;;
36931;SDS011;22847;42.654;23.370;2023-03-26T04:25:53;4.47;;;2.80;;
36931;SDS011;22847;42.654;23.370;2023-03-26T04:28:27;2.95;;;2.58;;
36931;SDS011;22847;42.654;23.370;2023-03-26T04:30:57;3.10;;;2.55;;
36931;SDS011;22847;42.654;23.370;2023-03-26T04:33:28;4.25;;;2.80;;
36931;SDS011;22847;42.654;23.370;2023-03-26T04:35:55;3.13;;;2.83;;
36931;SDS011;22847;42.654;23.370;2023-03-26T04:38:26;2.97;;;2.67;;
36931;SDS011;22847;42.654;23.370;2023-03-26T04:40:57;5.70;;;2.95;;
36931;SDS011;22847;42.654;23.370;2023-03-26T04:43:26;3.85;;;3.33;;
36931;SDS011;22847;42.654;23.370;2023-03-26T04:45:52;4.60;;;3.30;;
36931;SDS011;22847;42.654;23.370;2023-03-26T04:48:18;5.05;;;3.00;;
36931;SDS011;22847;42.654;23.370;2023-03-26T04:50:44;3.60;;;3.15;;
36931;SDS011;22847;42.654;23.370;2023-03-26T04:53:11;5.10;;;3.10;;
36931;SDS011;22847;42.654;23.370;2023-03-26T04:55:41;5.03;;;3.28;;
36931;SDS011;22847;42.654;23.370;2023-03-26T04:58:12;4.15;;;3.05;;
36931;SDS011;22847;42.654;23.370;2023-03-26T05:00:39;4.40;;;3.20;;
36931;SDS011;22847;42.654;23.370;2023-03-26T05:03:07;5.10;;;3.25;;
36931;SDS011;22847;42.654;23.370;2023-03-26T05:05:34;3.22;;;2.92;;
36931;SDS011;22847;42.654;23.370;2023-03-26T05:07:59;3.92;;;3.13;;
36931;SDS011;22847;42.654;23.370;2023-03-26T05:10:25;3.40;;;3.10;;
36931;SDS011;22847;42.654;23.370;2023-03-26T05:12:51;4.22;;;3.20;;
36931;SDS011;22847;42.654;23.370;2023-03-26T05:15:16;4.15;;;2.85;;
36931;SDS011;22847;42.654;23.370;2023-03-26T05:17:42;3.38;;;3.08;;
36931;SDS011;22847;42.654;23.370;2023-03-26T05:20:13;3.35;;;3.05;;
36931;SDS011;22847;42.654;23.370;2023-03-26T05:22:45;3.72;;;3.00;;
36931;SDS011;22847;42.654;23.370;2023-03-26T05:25:11;4.55;;;3.15;;
36931;SDS011;22847;42.654;23.370;2023-03-26T05:27:36;3.00;;;2.80;;
36931;SDS011;22847;42.654;23.370;2023-03-26T05:30:03;3.60;;;3.25;;
36931;SDS011;22847;42.654;23.370;2023-03-26T05:32:30;4.32;;;3.90;;
36931;SDS011;22847;42.654;23.370;2023-03-26T05:34:55;4.03;;;3.17;;
36931;SDS011;22847;42.654;23.370;2023-03-26T05:37:21;4.63;;;3.20;;
36931;SDS011;22847;42.654;23.370;2023-03-26T05:39:52;6.00;;;3.40;;
36931;SDS011;22847;42.654;23.370;2023-03-26T05:42:18;4.68;;;3.88;;
36931;SDS011;22847;42.654;23.370;2023-03-26T05:44:44;4.30;;;3.55;;
36931;SDS011;22847;42.654;23.370;2023-03-26T05:47:10;5.32;;;3.80;;
36931;SDS011;22847;42.654;23.370;2023-03-26T05:49:35;5.88;;;3.55;;
36931;SDS011;22847;42.654;23.370;2023-03-26T05:52:00;3.95;;;3.55;;
36931;SDS011;22847;42.654;23.370;2023-03-26T05:54:26;3.92;;;3.60;;
36931;SDS011;22847;42.654;23.370;2023-03-26T05:56:51;5.15;;;4.28;;
36931;SDS011;22847;42.654;23.370;2023-03-26T05:59:17;4.78;;;4.38;;
36931;SDS011;22847;42.654;23.370;2023-03-26T06:01:43;4.97;;;4.47;;
36931;SDS011;22847;42.654;23.370;2023-03-26T06:04:10;5.20;;;4.53;;
36931;SDS011;22847;42.654;23.370;2023-03-26T06:06:36;5.93;;;4.90;;
36931;SDS011;22847;42.654;23.370;2023-03-26T06:09:01;5.38;;;4.88;;
36931;SDS011;22847;42.654;23.370;2023-03-26T06:11:28;4.78;;;4.05;;
36931;SDS011;22847;42.654;23.370;2023-03-26T06:13:55;9.70;;;4.93;;
36931;SDS011;22847;42.654;23.370;2023-03-26T06:16:20;11.73;;;8.80;;
36931;SDS011;22847;42.654;23.370;2023-03-26T06:18:45;7.35;;;4.53;;
36931;SDS011;22847;42.654;23.370;2023-03-26T06:21:11;5.60;;;4.80;;
36931;SDS011;22847;42.654;23.370;2023-03-26T06:23:37;7.18;;;4.63;;
36931;SDS011;22847;42.654;23.370;2023-03-26T06:26:02;5.93;;;4.60;;
36931;SDS011;22847;42.654;23.370;2023-03-26T06:28:28;4.57;;;4.13;;
36931;SDS011;22847;42.654;23.370;2023-03-26T06:30:53;5.20;;;4.70;;
36931;SDS011;22847;42.654;23.370;2023-03-26T06:33:18;5.28;;;4.78;;
36931;SDS011;22847;42.654;23.370;2023-03-26T06:35:44;5.80;;;4.43;;
36931;SDS011;22847;42.654;23.370;2023-03-26T06:38:10;6.78;;;4.28;;
36931;SDS011;22847;42.654;23.370;2023-03-26T06:40:36;5.38;;;4.50;;
36931;SDS011;22847;42.654;23.370;2023-03-26T06:43:02;4.90;;;4.40;;
36931;SDS011;22847;42.654;23.370;2023-03-26T06:45:28;7.07;;;4.78;;
36931;SDS011;22847;42.654;23.370;2023-03-26T06:47:54;6.32;;;4.78;;
36931;SDS011;22847;42.654;23.370;2023-03-26T06:50:19;8.38;;;6.22;;
36931;SDS011;22847;42.654;23.370;2023-03-26T06:52:45;4.70;;;4.30;;
36931;SDS011;22847;42.654;23.370;2023-03-26T06:55:10;5.90;;;4.88;;
36931;SDS011;22847;42.654;23.370;2023-03-26T06:57:36;5.78;;;4.80;;
36931;SDS011;22847;42.654;23.370;2023-03-26T07:00:03;9.88;;;5.53;;
36931;SDS011;22847;42.654;23.370;2023-03-26T07:02:29;6.95;;;4.95;;
36931;SDS011;22847;42.654;23.370;2023-03-26T07:04:55;5.95;;;5.05;;
36931;SDS011;22847;42.654;23.370;2023-03-26T07:07:20;6.57;;;4.70;;
36931;SDS011;22847;42.654;23.370;2023-03-26T07:09:47;9.88;;;5.35;;
36931;SDS011;22847;42.654;23.370;2023-03-26T07:12:13;7.53;;;5.15;;
36931;SDS011;22847;42.654;23.370;2023-03-26T07:14:39;14.50;;;6.50;;
36931;SDS011;22847;42.654;23.370;2023-03-26T07:17:04;8.02;;;4.65;;
36931;SDS011;22847;42.654;23.370;2023-03-26T07:19:30;5.88;;;5.07;;
36931;SDS011;22847;42.654;23.370;2023-03-26T07:21:56;8.20;;;5.45;;
36931;SDS011;22847;42.654;23.370;2023-03-26T07:24:22;7.03;;;5.43;;
36931;SDS011;22847;42.654;23.370;2023-03-26T07:27:11;118.45;;;102.70;;
36931;SDS011;22847;42.654;23.370;2023-03-26T07:29:54;81.28;;;72.72;;
36931;SDS011;22847;42.654;23.370;2023-03-26T07:32:27;33.38;;;29.92;;
36931;SDS011;22847;42.654;23.370;2023-03-26T07:45:41;12.02;;;9.50;;
36931;SDS011;22847;42.654;23.370;2023-03-26T07:48:15;8.65;;;7.43;;
36931;SDS011;22847;42.654;23.370;2023-03-26T07:50:43;10.63;;;6.90;;
36931;SDS011;22847;42.654;23.370;2023-03-26T07:53:09;7.43;;;5.70;;
36931;SDS011;22847;42.654;23.370;2023-03-26T08:07:02;5.15;;;3.90;;
36931;SDS011;22847;42.654;23.370;2023-03-26T08:09:40;6.20;;;4.00;;
36931;SDS011;22847;42.654;23.370;2023-03-26T08:12:24;7.63;;;3.90;;
36931;SDS011;22847;42.654;23.370;2023-03-26T08:15:00;9.20;;;5.18;;
36931;SDS011;22847;42.654;23.370;2023-03-26T08:17:39;3.88;;;3.47;;
36931;SDS011;22847;42.654;23.370;2023-03-26T08:22:52;5.53;;;4.00;;
36931;SDS011;22847;42.654;23.370;2023-03-26T08:25:31;6.38;;;4.00;;
36931;SDS011;22847;42.654;23.370;2023-03-26T08:30:39;4.40;;;3.55;;
36931;SDS011;22847;42.654;23.370;2023-03-26T08:33:12;3.75;;;3.17;;
36931;SDS011;22847;42.654;23.370;2023-03-26T08:35:42;3.55;;;3.25;;
36931;SDS011;22847;42.654;23.370;2023-03-26T08:38:08;5.22;;;3.20;;
36931;SDS011;22847;42.654;23.370;2023-03-26T08:46:28;4.18;;;3.10;;
36931;SDS011;22847;42.654;23.370;2023-03-26T08:54:31;7.32;;;3.53;;
36931;SDS011;22847;42.654;23.370;2023-03-26T08:57:22;4.80;;;3.05;;
36931;SDS011;22847;42.654;23.370;2023-03-26T09:05:59;5.22;;;2.45;;
36931;SDS011;22847;42.654;23.370;2023-03-26T09:25:23;2.63;;;1.98;;
36931;SDS011;22847;42.654;23.370;2023-03-26T09:39:31;5.10;;;1.90;;
36931;SDS011;22847;42.654;23.370;2023-03-26T09:42:16;2.42;;;1.92;;
36931;SDS011;22847;42.654;23.370;2023-03-26T09:50:08;4.63;;;2.30;;
36931;SDS011;22847;42.654;23.370;2023-03-26T09:52:55;17.60;;;3.05;;
36931;SDS011;22847;42.654;23.370;2023-03-26T09:55:41;2.50;;;1.90;;
36931;SDS011;22847;42.654;23.370;2023-03-26T10:00:50;5.88;;;2.90;;
36931;SDS011;22847;42.654;23.370;2023-03-26T10:17:23;3.08;;;1.33;;
36931;SDS011;22847;42.654;23.370;2023-03-26T10:31:41;6.35;;;1.40;;
36931;SDS011;22847;42.654;23.370;2023-03-26T10:34:17;4.32;;;1.30;;
36931;SDS011;22847;42.654;23.370;2023-03-26T10:53:53;7.45;;;3.00;;
36931;SDS011;22847;42.654;23.370;2023-03-26T10:56:43;2.97;;;1.30;;
36931;SDS011;22847;42.654;23.370;2023-03-26T10:59:11;1.25;;;1.10;;
36931;SDS011;22847;42.654;23.370;2023-03-26T11:09:51;1.98;;;1.10;;
36931;SDS011;22847;42.654;23.370;2023-03-26T11:12:27;13.35;;;6.75;;
36931;SDS011;22847;42.654;23.370;2023-03-26T11:15:09;10.40;;;4.10;;
36931;SDS011;22847;42.654;23.370;2023-03-26T11:18:03;5.20;;;2.40;;
36931;SDS011;22847;42.654;23.370;2023-03-26T11:20:38;2.95;;;1.38;;
36931;SDS011;22847;42.654;23.370;2023-03-26T11:34:20;3.65;;;1.50;;
36931;SDS011;22847;42.654;23.370;2023-03-26T11:36:51;1.05;;;0.90;;
36931;SDS011;22847;42.654;23.370;2023-03-26T11:39:22;6.72;;;1.45;;
36931;SDS011;22847;42.654;23.370;2023-03-26T11:41:51;0.93;;;0.68;;
36931;SDS011;22847;42.654;23.370;2023-03-26T11:44:28;6.10;;;1.38;;
36931;SDS011;22847;42.654;23.370;2023-03-26T11:47:02;1.90;;;1.00;;
36931;SDS011;22847;42.654;23.370;2023-03-26T11:49:34;1.20;;;0.80;;
36931;SDS011;22847;42.654;23.370;2023-03-26T11:52:00;5.03;;;1.40;;
36931;SDS011;22847;42.654;23.370;2023-03-26T11:54:27;3.20;;;1.20;;
36931;SDS011;22847;42.654;23.370;2023-03-26T11:56:53;3.05;;;1.13;;
36931;SDS011;22847;42.654;23.370;2023-03-26T11:59:26;2.42;;;1.38;;
36931;SDS011;22847;42.654;23.370;2023-03-26T12:01:56;1.67;;;1.40;;
36931;SDS011;22847;42.654;23.370;2023-03-26T12:04:49;2.90;;;1.83;;
36931;SDS011;22847;42.654;23.370;2023-03-26T12:07:29;1.10;;;1.00;;
36931;SDS011;22847;42.654;23.370;2023-03-26T12:09:59;2.95;;;1.20;;
36931;SDS011;22847;42.654;23.370;2023-03-26T12:12:33;2.70;;;1.92;;
36931;SDS011;22847;42.654;23.370;2023-03-26T12:15:02;14.63;;;4.88;;
36931;SDS011;22847;42.654;23.370;2023-03-26T12:17:33;4.50;;;3.20;;
36931;SDS011;22847;42.654;23.370;2023-03-26T12:20:00;2.70;;;1.90;;
36931;SDS011;22847;42.654;23.370;2023-03-26T12:22:46;5.18;;;2.10;;
36931;SDS011;22847;42.654;23.370;2023-03-26T12:28:04;3.75;;;1.30;;
36931;SDS011;22847;42.654;23.370;2023-03-26T12:30:37;1.40;;;1.30;;
36931;SDS011;22847;42.654;23.370;2023-03-26T12:33:15;3.15;;;2.20;;
36931;SDS011;22847;42.654;23.370;2023-03-26T12:35:46;2.53;;;1.70;;
36931;SDS011;22847;42.654;23.370;2023-03-26T12:40:38;49.55;;;35.00;;
36931;SDS011;22847;42.654;23.370;2023-03-26T12:43:19;40.60;;;26.15;;
36931;SDS011;22847;42.654;23.370;2023-03-26T12:45:53;23.48;;;15.85;;
36931;SDS011;22847;42.654;23.370;2023-03-26T12:48:19;17.13;;;11.52;;
36931;SDS011;22847;42.654;23.370;2023-03-26T13:01:25;9.77;;;5.57;;
36931;SDS011;22847;42.654;23.370;2023-03-26T13:06:35;3.38;;;2.35;;
36931;SDS011;22847;42.654;23.370;2023-03-26T13:12:26;3.25;;;2.40;;
36931;SDS011;22847;42.654;23.370;2023-03-26T13:23:36;1.23;;;1.13;;
36931;SDS011;22847;42.654;23.370;2023-03-26T13:36:44;4.70;;;1.90;;
36931;SDS011;22847;42.654;23.370;2023-03-26T13:44:41;2.08;;;1.17;;
36931;SDS011;22847;42.654;23.370;2023-03-26T13:47:30;2.35;;;2.00;;
36931;SDS011;22847;42.654;23.370;2023-03-26T13:55:55;6.28;;;4.90;;
36931;SDS011;22847;42.654;23.370;2023-03-26T14:00:53;3.10;;;1.13;;
36931;SDS011;22847;42.654;23.370;2023-03-26T14:09:01;1.23;;;0.80;;
36931;SDS011;22847;42.654;23.370;2023-03-26T14:11:51;0.98;;;0.60;;
36931;SDS011;22847;42.654;23.370;2023-03-26T14:14:45;1.27;;;0.60;;
36931;SDS011;22847;42.654;23.370;2023-03-26T14:22:42;0.77;;;0.50;;
36931;SDS011;22847;42.654;23.370;2023-03-26T14:28:00;0.73;;;0.70;;
36931;SDS011;22847;42.654;23.370;2023-03-26T14:30:59;2.03;;;0.65;;
36931;SDS011;22847;42.654;23.370;2023-03-26T14:33:25;1.13;;;0.57;;
36931;SDS011;22847;42.654;23.370;2023-03-26T14:41:52;3.63;;;0.60;;
36931;SDS011;22847;42.654;23.370;2023-03-26T14:44:30;1.38;;;0.73;;
36931;SDS011;22847;42.654;23.370;2023-03-26T14:49:49;1.30;;;0.70;;
36931;SDS011;22847;42.654;23.370;2023-03-26T14:58:15;1.40;;;0.88;;
36931;SDS011;22847;42.654;23.370;2023-03-26T15:01:07;1.83;;;0.90;;
36931;SDS011;22847;42.654;23.370;2023-03-26T15:12:36;1.50;;;0.90;;
36931;SDS011;22847;42.654;23.370;2023-03-26T15:34:52;1.02;;;0.77;;
36931;SDS011;22847;42.654;23.370;2023-03-26T15:43:10;1.25;;;0.80;;
36931;SDS011;22847;42.654;23.370;2023-03-26T15:48:33;1.15;;;0.70;;
36931;SDS011;22847;42.654;23.370;2023-03-26T15:51:33;1.25;;;0.75;;
36931;SDS011;22847;42.654;23.370;2023-03-26T15:54:19;1.02;;;0.85;;
36931;SDS011;22847;42.654;23.370;2023-03-26T16:10:50;3.67;;;1.33;;
36931;SDS011;22847;42.654;23.370;2023-03-26T16:18:28;1.55;;;0.95;;
36931;SDS011;22847;42.654;23.370;2023-03-26T16:32:24;2.47;;;1.10;;
36931;SDS011;22847;42.654;23.370;2023-03-26T16:34:53;3.90;;;2.33;;
36931;SDS011;22847;42.654;23.370;2023-03-26T16:45:54;2.25;;;1.40;;
36931;SDS011;22847;42.654;23.370;2023-03-26T16:57:34;8.73;;;2.83;;
36931;SDS011;22847;42.654;23.370;2023-03-26T17:05:48;3.92;;;1.90;;
36931;SDS011;22847;42.654;23.370;2023-03-26T17:17:35;26.35;;;9.77;;
36931;SDS011;22847;42.654;23.370;2023-03-26T17:33:42;8.25;;;3.30;;
36931;SDS011;22847;42.654;23.370;2023-03-26T17:41:02;5.35;;;3.00;;
36931;SDS011;22847;42.654;23.370;2023-03-26T17:48:58;29.38;;;15.45;;
36931;SDS011;22847;42.654;23.370;2023-03-26T17:51:39;17.70;;;8.73;;
36931;SDS011;22847;42.654;23.370;2023-03-26T17:56:53;8.25;;;4.28;;
36931;SDS011;22847;42.654;23.370;2023-03-26T17:59:24;7.15;;;4.03;;
36931;SDS011;22847;42.654;23.370;2023-03-26T18:01:55;4.97;;;3.10;;
36931;SDS011;22847;42.654;23.370;2023-03-26T18:04:33;9.93;;;3.00;;
36931;SDS011;22847;42.654;23.370;2023-03-26T18:09:55;7.03;;;3.00;;
36931;SDS011;22847;42.654;23.370;2023-03-26T18:18:12;5.25;;;2.88;;
36931;SDS011;22847;42.654;23.370;2023-03-26T18:20:44;7.72;;;2.80;;
36931;SDS011;22847;42.654;23.370;2023-03-26T18:23:22;4.60;;;2.90;;
36931;SDS011;22847;42.654;23.370;2023-03-26T18:31:57;8.93;;;2.80;;
36931;SDS011;22847;42.654;23.370;2023-03-26T18:34:26;7.50;;;3.25;;
36931;SDS011;22847;42.654;23.370;2023-03-26T18:39:55;4.78;;;2.53;;
36931;SDS011;22847;42.654;23.370;2023-03-26T18:42:23;8.93;;;3.28;;
36931;SDS011;22847;42.654;23.370;2023-03-26T18:44:51;6.00;;;2.92;;
36931;SDS011;22847;42.654;23.370;2023-03-26T18:47:17;7.15;;;3.25;;
36931;SDS011;22847;42.654;23.370;2023-03-26T18:49:44;5.10;;;3.20;;
36931;SDS011;22847;42.654;23.370;2023-03-26T18:52:12;6.40;;;3.03;;
36931;SDS011;22847;42.654;23.370;2023-03-26T18:54:40;6.82;;;3.20;;
36931;SDS011;22847;42.654;23.370;2023-03-26T18:57:09;30.65;;;15.18;;
36931;SDS011;22847;42.654;23.370;2023-03-26T18:59:43;10.98;;;6.22;;
36931;SDS011;22847;42.654;23.370;2023-03-26T19:02:12;7.72;;;3.83;;
36931;SDS011;22847;42.654;23.370;2023-03-26T19:04:38;20.95;;;12.55;;
36931;SDS011;22847;42.654;23.370;2023-03-26T19:07:08;14.88;;;6.97;;
36931;SDS011;22847;42.654;23.370;2023-03-26T19:09:37;12.55;;;5.45;;
36931;SDS011;22847;42.654;23.370;2023-03-26T19:12:12;8.23;;;4.32;;
36931;SDS011;22847;42.654;23.370;2023-03-26T19:14:52;7.63;;;2.85;;
36931;SDS011;22847;42.654;23.370;2023-03-26T19:17:23;7.88;;;2.60;;
36931;SDS011;22847;42.654;23.370;2023-03-26T19:19:51;4.13;;;2.83;;
36931;SDS011;22847;42.654;23.370;2023-03-26T19:22:19;3.67;;;2.47;;
36931;SDS011;22847;42.654;23.370;2023-03-26T19:24:47;5.72;;;3.13;;
36931;SDS011;22847;42.654;23.370;2023-03-26T19:27:17;8.18;;;3.72;;
36931;SDS011;22847;42.654;23.370;2023-03-26T19:29:42;5.80;;;3.28;;
36931;SDS011;22847;42.654;23.370;2023-03-26T19:32:17;7.10;;;3.20;;
36931;SDS011;22847;42.654;23.370;2023-03-26T19:37:22;5.97;;;3.05;;
36931;SDS011;22847;42.654;23.370;2023-03-26T19:42:55;6.10;;;2.88;;
36931;SDS011;22847;42.654;23.370;2023-03-26T19:45:21;4.43;;;2.95;;
36931;SDS011;22847;42.654;23.370;2023-03-26T19:47:50;6.72;;;3.03;;
36931;SDS011;22847;42.654;23.370;2023-03-26T19:50:27;7.22;;;3.42;;
36931;SDS011;22847;42.654;23.370;2023-03-26T19:53:05;8.52;;;3.55;;
36931;SDS011;22847;42.654;23.370;2023-03-26T19:55:41;5.07;;;3.03;;
36931;SDS011;22847;42.654;23.370;2023-03-26T19:58:20;4.82;;;2.78;;
36931;SDS011;22847;42.654;23.370;2023-03-26T20:00:46;5.25;;;2.90;;
36931;SDS011;22847;42.654;23.370;2023-03-26T20:03:11;6.55;;;2.90;;
36931;SDS011;22847;42.654;23.370;2023-03-26T20:05:37;8.38;;;2.67;;
36931;SDS011;22847;42.654;23.370;2023-03-26T20:08:08;4.35;;;2.13;;
36931;SDS011;22847;42.654;23.370;2023-03-26T20:10:38;3.58;;;2.05;;
36931;SDS011;22847;42.654;23.370;2023-03-26T20:13:07;4.22;;;1.80;;
36931;SDS011;22847;42.654;23.370;2023-03-26T20:15:38;3.72;;;2.17;;
36931;SDS011;22847;42.654;23.370;2023-03-26T20:18:04;3.83;;;1.55;;
36931;SDS011;22847;42.654;23.370;2023-03-26T20:20:30;3.45;;;2.05;;
36931;SDS011;22847;42.654;23.370;2023-03-26T20:22:57;3.97;;;2.30;;
36931;SDS011;22847;42.654;23.370;2023-03-26T20:25:23;4.80;;;2.42;;
36931;SDS011;22847;42.654;23.370;2023-03-26T20:27:51;4.85;;;1.80;;
36931;SDS011;22847;42.654;23.370;2023-03-26T20:30:18;2.88;;;1.40;;
36931;SDS011;22847;42.654;23.370;2023-03-26T20:32:44;4.03;;;1.40;;
36931;SDS011;22847;42.654;23.370;2023-03-26T20:35:22;3.05;;;1.40;;
36931;SDS011;22847;42.654;23.370;2023-03-26T20:37:49;2.65;;;1.42;;
36931;SDS011;22847;42.654;23.370;2023-03-26T20:40:15;3.30;;;1.75;;
36931;SDS011;22847;42.654;23.370;2023-03-26T20:42:41;1.55;;;1.23;;
36931;SDS011;22847;42.654;23.370;2023-03-26T20:45:19;4.30;;;1.60;;
36931;SDS011;22847;42.654;23.370;2023-03-26T20:47:46;2.25;;;1.65;;
36931;SDS011;22847;42.654;23.370;2023-03-26T20:50:17;3.33;;;1.65;;
36931;SDS011;22847;42.654;23.370;2023-03-26T20:52:45;2.28;;;1.40;;
36931;SDS011;22847;42.654;23.370;2023-03-26T20:55:12;1.70;;;1.40;;
36931;SDS011;22847;42.654;23.370;2023-03-26T20:57:39;2.95;;;1.65;;
36931;SDS011;22847;42.654;23.370;2023-03-26T21:00:05;5.47;;;1.50;;
36931;SDS011;22847;42.654;23.370;2023-03-26T21:02:53;3.67;;;1.48;;
36931;SDS011;22847;42.654;23.370;2023-03-26T21:05:20;2.17;;;1.80;;
36931;SDS011;22847;42.654;23.370;2023-03-26T21:07:51;2.28;;;1.50;;
36931;SDS011;22847;42.654;23.370;2023-03-26T21:10:18;6.30;;;1.63;;
36931;SDS011;22847;42.654;23.370;2023-03-26T21:15:22;3.92;;;1.75;;
36931;SDS011;22847;42.654;23.370;2023-03-26T21:17:49;2.53;;;1.40;;
36931;SDS011;22847;42.654;23.370;2023-03-26T21:20:16;2.10;;;1.73;;
36931;SDS011;22847;42.654;23.370;2023-03-26T21:30:49;4.32;;;2.33;;
36931;SDS011;22847;42.654;23.370;2023-03-26T21:33:15;3.65;;;2.00;;
36931;SDS011;22847;42.654;23.370;2023-03-26T21:35:41;3.70;;;2.20;;
36931;SDS011;22847;42.654;23.370;2023-03-26T21:38:08;2.83;;;2.00;;
36931;SDS011;22847;42.654;23.370;2023-03-26T21:40:35;5.55;;;2.40;;